Time;durP1;ratioP1;P1;durP2;ratioP2;P2;SDS_P1;SDS_P2;PMS_P1;PMS_P2;Temp;Humidity;BMP_temperature;BMP_pressure;BME280_temperature;BME280_humidity;BME280_pressure;Samples;Min_cycle;Max_cycle;Signal;HPM_P1;HPM_P2
2024/03/21 00:00:15;;;;;;;47.90;26.60;;;;;;;15.36;66.71;102145.53;4993889;28;20026;-45
2024/03/21 00:02:46;;;;;;;48.17;27.27;;;;;;;15.18;67.35;102151.41;4992863;28;20125;-49
2024/03/21 00:05:12;;;;;;;50.92;28.30;;;;;;;15.06;68.14;102159.09;4992249;28;20038;-49
2024/03/21 00:07:37;;;;;;;50.15;27.83;;;;;;;15.10;68.24;102155.66;4991382;28;20050;-45
2024/03/21 00:10:03;;;;;;;45.88;26.38;;;;;;;15.36;67.32;102146.41;4991925;28;20035;-47
2024/03/21 00:12:29;;;;;;;50.78;27.10;;;;;;;15.41;67.11;102144.72;4991225;28;20038;-46
2024/03/21 00:14:55;;;;;;;43.33;26.45;;;;;;;15.44;66.81;102143.88;4991434;28;20038;-47
2024/03/21 00:17:20;;;;;;;47.95;27.08;;;;;;;15.24;67.11;102130.47;4990352;28;20050;-46
2024/03/21 00:19:45;;;;;;;46.65;26.20;;;;;;;15.33;67.06;102135.84;4990628;28;20042;-45
2024/03/21 00:22:11;;;;;;;48.20;26.48;;;;;;;15.21;67.13;102140.94;4990296;28;20042;-52
2024/03/21 00:24:38;;;;;;;48.00;26.25;;;;;;;15.17;67.85;102138.25;4989914;28;20535;-44
2024/03/21 00:27:06;;;;;;;49.00;26.75;;;;;;;14.96;68.17;102147.56;4992184;28;20026;-50
2024/03/21 00:29:33;;;;;;;47.13;26.63;;;;;;;14.57;69.85;102179.28;4993114;28;20034;-45
2024/03/21 00:31:59;;;;;;;46.97;24.02;;;;;;;14.67;69.82;102200.44;4994071;28;20118;-44
2024/03/21 00:34:25;;;;;;;42.60;22.80;;;;;;;15.25;67.98;102181.25;4991473;28;20037;-46
2024/03/21 00:36:50;;;;;;;36.85;19.98;;;;;;;15.04;68.20;102189.69;4991448;28;20038;-46
2024/03/21 00:39:19;;;;;;;48.42;20.17;;;;;;;14.95;68.31;102187.78;4990872;28;20035;-47
2024/03/21 00:41:45;;;;;;;39.20;19.38;;;;;;;15.21;67.22;102180.34;4991463;28;20173;-47
2024/03/21 00:44:11;;;;;;;37.40;19.98;;;;;;;15.17;66.95;102180.28;4991470;28;20038;-44
2024/03/21 00:46:37;;;;;;;37.67;19.52;;;;;;;15.47;66.12;102174.56;4991822;28;20512;-47
2024/03/21 00:49:03;;;;;;;39.75;19.77;;;;;;;15.10;67.15;102174.03;4992296;28;20038;-43
2024/03/21 00:51:31;;;;;;;38.63;19.45;;;;;;;15.14;67.55;102172.31;4992100;28;20105;-45
2024/03/21 00:53:57;;;;;;;43.83;19.83;;;;;;;15.18;67.55;102169.78;4992126;28;20416;-42
2024/03/21 00:56:22;;;;;;;37.67;20.05;;;;;;;15.19;67.00;102175.91;4991412;28;20048;-44
2024/03/21 00:58:48;;;;;;;39.60;20.08;;;;;;;14.95;68.49;102194.78;4992617;28;20042;-46
2024/03/21 01:01:13;;;;;;;42.67;19.88;;;;;;;15.09;68.86;102203.78;4992659;28;20081;-51
2024/03/21 01:03:39;;;;;;;37.28;19.02;;;;;;;15.25;67.71;102191.75;4990326;28;20100;-46
2024/03/21 01:06:04;;;;;;;42.10;20.30;;;;;;;15.00;69.19;102198.41;4990675;28;20059;-45
2024/03/21 01:08:30;;;;;;;40.33;19.67;;;;;;;14.81;69.83;102204.19;4990529;28;20057;-45
2024/03/21 01:10:55;;;;;;;40.80;18.85;;;;;;;14.95;69.75;102213.16;4991811;28;20034;-46
2024/03/21 01:13:20;;;;;;;39.25;20.15;;;;;;;14.74;71.38;102220.69;4990085;28;20038;-49
2024/03/21 01:15:46;;;;;;;41.65;20.65;;;;;;;15.06;70.18;102209.00;4990590;28;20071;-45
2024/03/21 01:18:12;;;;;;;41.58;21.67;;;;;;;15.03;70.58;102204.56;4990849;28;20042;-43
2024/03/21 01:20:41;;;;;;;39.20;21.85;;;;;;;14.78;71.58;102212.00;4990383;28;20034;-49
2024/03/21 01:23:07;;;;;;;37.35;20.75;;;;;;;14.87;71.31;102202.56;4990249;28;20061;-46
2024/03/21 01:25:32;;;;;;;40.08;21.95;;;;;;;15.20;70.50;102198.69;4990072;28;20518;-45
2024/03/21 01:28:00;;;;;;;43.22;22.13;;;;;;;15.30;69.97;102196.25;4990804;28;20030;-43
2024/03/21 01:30:28;;;;;;;45.15;23.00;;;;;;;14.81;72.14;102204.19;4989777;28;20049;-47
2024/03/21 01:32:53;;;;;;;40.17;21.52;;;;;;;14.99;72.38;102196.63;4990147;28;20076;-46
2024/03/21 01:35:19;;;;;;;37.38;20.73;;;;;;;15.07;72.19;102194.09;4987866;28;20042;-44
2024/03/21 01:37:44;;;;;;;44.55;21.13;;;;;;;15.20;72.01;102194.31;4988531;28;20034;-47
2024/03/21 01:40:11;;;;;;;38.40;20.08;;;;;;;14.73;74.17;102201.44;4980127;28;20038;-49
2024/03/21 01:42:37;;;;;;;34.22;18.40;;;;;;;14.49;75.72;102206.25;4985193;28;20046;-45
2024/03/21 01:45:05;;;;;;;32.58;16.90;;;;;;;14.76;74.59;102190.13;4985144;28;20046;-46
2024/03/21 01:47:31;;;;;;;36.20;17.45;;;;;;;14.96;74.26;102197.44;4985382;28;20125;-43
2024/03/21 01:49:56;;;;;;;34.58;15.73;;;;;;;14.78;74.74;102191.88;4985057;28;20134;-45
2024/03/21 01:52:23;;;;;;;32.85;16.45;;;;;;;14.72;75.03;102196.16;4984319;28;20054;-45
2024/03/21 01:54:48;;;;;;;30.15;15.60;;;;;;;14.52;75.58;102198.41;4985616;28;20417;-44
2024/03/21 01:57:14;;;;;;;30.10;15.02;;;;;;;14.63;75.27;102207.38;4985066;28;20069;-49
2024/03/21 01:59:40;;;;;;;29.35;14.88;;;;;;;14.44;75.98;102202.66;4983945;28;20052;-44
2024/03/21 02:02:05;;;;;;;30.67;13.90;;;;;;;14.22;77.28;102204.81;4984946;28;20050;-47
2024/03/21 02:04:31;;;;;;;25.13;12.27;;;;;;;14.23;77.75;102213.56;4984750;28;20048;-46
2024/03/21 02:06:57;;;;;;;21.85;11.52;;;;;;;13.78;79.11;102206.53;4984612;28;20125;-45
2024/03/21 02:09:25;;;;;;;21.75;10.52;;;;;;;13.99;78.50;102208.72;4985376;28;20624;-44
2024/03/21 02:11:51;;;;;;;16.15;10.45;;;;;;;14.12;77.46;102208.13;4985137;28;20158;-47
2024/03/21 02:14:19;;;;;;;18.30;9.68;;;;;;;14.34;75.96;102208.53;4984682;28;20067;-46
2024/03/21 02:16:44;;;;;;;17.67;9.73;;;;;;;13.95;77.15;102217.38;4985493;28;20077;-47
2024/03/21 02:19:10;;;;;;;17.30;9.95;;;;;;;13.87;77.36;102221.56;4985231;28;20078;-44
2024/03/21 02:24:19;;;;;;;17.55;9.90;;;;;;;13.75;77.61;102231.78;4983876;28;20081;-47
2024/03/21 02:26:44;;;;;;;18.73;11.27;;;;;;;13.71;78.30;102241.34;4984915;28;20066;-47
2024/03/21 02:29:10;;;;;;;23.33;12.15;;;;;;;13.79;78.05;102236.25;4985791;28;20051;-47
2024/03/21 02:31:35;;;;;;;21.52;13.38;;;;;;;13.56;78.88;102243.59;4985058;28;20626;-44
2024/03/21 02:34:01;;;;;;;20.75;11.82;;;;;;;13.50;78.79;102250.44;4983392;28;20050;-45
2024/03/21 02:36:26;;;;;;;18.13;12.18;;;;;;;13.35;78.78;102240.50;4986862;28;20469;-44
2024/03/21 02:38:51;;;;;;;23.15;13.35;;;;;;;13.91;76.31;102223.41;4987230;28;20054;-45
2024/03/21 02:41:16;;;;;;;20.45;11.88;;;;;;;14.26;75.39;102223.25;4986653;28;20046;-47
2024/03/21 02:43:42;;;;;;;18.05;12.23;;;;;;;14.36;74.27;102220.84;4984626;28;20038;-47
2024/03/21 02:46:07;;;;;;;23.05;12.32;;;;;;;13.42;77.18;102231.91;4985751;28;20038;-45
2024/03/21 02:48:34;;;;;;;18.55;11.98;;;;;;;13.79;76.63;102229.25;4987368;28;20042;-46
2024/03/21 02:50:59;;;;;;;19.70;12.65;;;;;;;13.92;75.40;102229.53;4988506;28;20070;-47
2024/03/21 02:53:24;;;;;;;21.60;12.88;;;;;;;13.65;76.60;102240.31;4987225;28;20069;-44
2024/03/21 02:55:50;;;;;;;20.70;12.07;;;;;;;12.99;79.36;102248.31;4987032;28;20047;-45
2024/03/21 02:58:15;;;;;;;17.65;10.63;;;;;;;12.65;80.96;102251.75;4987526;28;20460;-46
2024/03/21 03:00:40;;;;;;;19.70;10.68;;;;;;;13.11;79.42;102261.72;4988058;28;20615;-44
2024/03/21 03:03:07;;;;;;;14.90;8.38;;;;;;;13.19;78.49;102262.78;4987647;28;20062;-43
2024/03/21 03:05:39;;;;;;;11.75;6.40;;;;;;;12.84;79.40;102274.97;4987951;28;20096;-44
2024/03/21 03:08:04;;;;;;;16.77;5.90;;;;;;;12.47;81.21;102287.88;4988218;28;20049;-45
2024/03/21 03:10:29;;;;;;;11.10;5.57;;;;;;;12.36;81.80;102287.59;4986801;28;20034;-43
2024/03/21 03:12:55;;;;;;;14.35;6.65;;;;;;;12.34;81.51;102299.72;4987928;28;20057;-44
2024/03/21 03:15:20;;;;;;;19.67;7.45;;;;;;;12.51;80.85;102290.63;4985757;28;20042;-43
2024/03/21 03:17:45;;;;;;;17.52;9.93;;;;;;;12.13;81.75;102299.13;4987979;28;20382;-44
2024/03/21 03:20:11;;;;;;;17.00;10.85;;;;;;;12.90;79.95;102305.66;4987360;28;20046;-45
2024/03/21 03:22:36;;;;;;;19.27;10.95;;;;;;;12.08;81.78;102309.41;4986853;28;20057;-46
2024/03/21 03:25:02;;;;;;;23.15;10.90;;;;;;;12.28;82.61;102303.88;4987736;28;20049;-46
2024/03/21 03:27:27;;;;;;;21.98;10.43;;;;;;;12.66;81.21;102318.06;4987576;28;20046;-42
2024/03/21 03:29:52;;;;;;;24.20;9.30;;;;;;;12.27;82.13;102321.31;4988033;28;20042;-44
2024/03/21 03:32:18;;;;;;;16.77;7.88;;;;;;;12.08;82.01;102330.31;4986549;28;20104;-47
2024/03/21 03:37:27;;;;;;;22.50;9.57;;;;;;;12.17;82.19;102325.38;4987345;28;20393;-47
2024/03/21 03:39:52;;;;;;;21.45;10.05;;;;;;;12.54;81.54;102322.13;4989035;28;20038;-44
2024/03/21 03:42:20;;;;;;;22.63;10.32;;;;;;;12.28;81.09;102325.69;4992494;28;20169;-46
2024/03/21 03:44:45;;;;;;;27.27;11.07;;;;;;;12.34;81.13;102320.66;4992754;28;20049;-45
2024/03/21 03:47:10;;;;;;;24.35;12.23;;;;;;;12.68;80.04;102321.63;4993990;28;20034;-48
2024/03/21 03:49:35;;;;;;;26.60;13.63;;;;;;;12.24;80.57;102330.81;4993411;28;20045;-46
2024/03/21 03:52:01;;;;;;;28.25;15.15;;;;;;;12.53;80.69;102327.28;4993115;28;20045;-46
2024/03/21 03:54:27;;;;;;;26.48;15.70;;;;;;;12.42;79.87;102321.75;4992139;28;20515;-48
2024/03/21 03:56:53;;;;;;;31.38;15.90;;;;;;;12.14;81.40;102327.00;4992468;28;20046;-48
2024/03/21 03:59:18;;;;;;;29.10;16.17;;;;;;;13.00;77.94;102333.81;4991358;28;20038;-42
2024/03/21 04:01:46;;;;;;;32.35;17.27;;;;;;;12.89;77.77;102345.75;4992091;28;20503;-46
2024/03/21 04:04:11;;;;;;;29.42;16.13;;;;;;;12.85;76.63;102351.75;4991655;28;20042;-46
2024/03/21 04:06:36;;;;;;;29.23;15.70;;;;;;;12.81;77.49;102353.38;4991423;28;20030;-48
2024/03/21 04:09:02;;;;;;;25.60;14.05;;;;;;;13.02;76.62;102350.47;4992106;28;20104;-45
2024/03/21 04:11:27;;;;;;;28.75;14.48;;;;;;;12.98;76.74;102364.34;4991264;28;20042;-45
2024/03/21 04:13:52;;;;;;;27.15;14.07;;;;;;;12.95;76.37;102362.50;4991389;28;20035;-46
2024/03/21 04:16:18;;;;;;;24.33;12.65;;;;;;;12.75;77.09;102357.56;4991246;28;20033;-46
2024/03/21 04:18:44;;;;;;;19.80;11.43;;;;;;;12.89;75.83;102361.44;4991934;28;20117;-46
2024/03/21 04:21:11;;;;;;;16.60;9.25;;;;;;;12.82;75.37;102370.84;4992044;28;20042;-43
2024/03/21 04:23:36;;;;;;;15.48;9.07;;;;;;;12.91;74.20;102376.38;4990849;28;20401;-45
2024/03/21 04:26:02;;;;;;;17.58;10.07;;;;;;;12.53;75.12;102372.66;4993101;28;20038;-42
2024/03/21 04:28:27;;;;;;;18.15;10.38;;;;;;;13.07;73.62;102380.28;4993594;28;20034;-44
2024/03/21 04:30:52;;;;;;;14.95;9.30;;;;;;;13.07;72.90;102377.66;4994022;28;20089;-44
2024/03/21 04:33:18;;;;;;;16.33;9.20;;;;;;;13.22;72.35;102383.34;4993093;28;20122;-43
2024/03/21 04:35:43;;;;;;;13.95;9.07;;;;;;;13.30;71.54;102388.78;4992583;28;20050;-45
2024/03/21 04:38:09;;;;;;;16.48;10.25;;;;;;;13.20;73.13;102392.00;4991810;28;20030;-45
2024/03/21 04:40:35;;;;;;;16.45;9.23;;;;;;;13.07;72.34;102385.50;4991105;28;20107;-45
2024/03/21 04:43:00;;;;;;;16.65;9.65;;;;;;;13.40;71.87;102380.31;4990430;28;20493;-44
2024/03/21 04:45:26;;;;;;;18.15;9.45;;;;;;;13.38;71.60;102388.13;4992537;28;20041;-44
2024/03/21 04:47:51;;;;;;;21.63;10.90;;;;;;;12.91;72.76;102393.81;4992096;28;20047;-44
2024/03/21 04:50:20;;;;;;;13.88;6.97;;;;;;;12.62;73.83;102402.56;4991519;28;20061;-44
2024/03/21 04:52:46;;;;;;;14.02;6.00;;;;;;;12.91;72.95;102399.94;4992721;28;20536;-45
2024/03/21 04:55:11;;;;;;;12.18;4.43;;;;;;;12.56;73.10;102406.75;4991016;28;20113;-46
2024/03/21 04:57:38;;;;;;;9.00;4.60;;;;;;;13.02;72.01;102410.69;4990855;28;20044;-46
2024/03/21 05:00:05;;;;;;;10.63;4.32;;;;;;;13.25;70.40;102407.00;4989842;28;20492;-46
2024/03/21 05:02:30;;;;;;;7.15;3.80;;;;;;;12.91;70.99;102414.75;4990258;28;20058;-47
2024/03/21 05:04:56;;;;;;;10.13;3.35;;;;;;;12.53;72.40;102430.22;4990844;28;20069;-47
2024/03/21 05:07:21;;;;;;;6.40;3.00;;;;;;;12.16;73.03;102432.53;4990520;28;20501;-45
2024/03/21 05:09:46;;;;;;;5.75;2.50;;;;;;;12.43;72.94;102435.13;4990475;28;20054;-47
2024/03/21 05:12:13;;;;;;;6.80;2.35;;;;;;;12.60;71.95;102431.28;4991078;28;20043;-45
2024/03/21 05:14:38;;;;;;;8.90;2.28;;;;;;;12.71;71.69;102428.97;4990306;28;20034;-45
2024/03/21 05:17:04;;;;;;;7.05;2.80;;;;;;;12.36;72.63;102435.78;4991043;28;20045;-44
2024/03/21 05:19:30;;;;;;;7.22;2.67;;;;;;;13.08;70.71;102436.16;4989363;28;20034;-44
2024/03/21 05:21:55;;;;;;;8.32;2.65;;;;;;;12.60;71.47;102433.91;4991106;28;20038;-45
2024/03/21 05:24:21;;;;;;;5.65;2.20;;;;;;;13.02;70.64;102429.00;4989831;28;20034;-45
2024/03/21 05:26:46;;;;;;;9.15;2.70;;;;;;;12.63;71.34;102438.31;4990838;28;20166;-44
2024/03/21 05:29:11;;;;;;;10.57;3.30;;;;;;;12.59;71.93;102442.59;4990835;28;20045;-45
2024/03/21 05:31:37;;;;;;;10.23;4.35;;;;;;;12.49;72.78;102457.13;4990059;28;20050;-45
2024/03/21 05:34:02;;;;;;;9.13;3.78;;;;;;;12.75;71.20;102454.38;4990298;28;20105;-46
2024/03/21 05:36:27;;;;;;;14.02;4.20;;;;;;;12.45;72.17;102467.41;4990179;28;20045;-43
2024/03/21 05:38:53;;;;;;;10.10;3.92;;;;;;;12.20;73.36;102481.44;4990512;28;20045;-48
2024/03/21 05:41:18;;;;;;;9.32;3.58;;;;;;;12.16;73.38;102471.75;4990538;28;20133;-46
2024/03/21 05:43:43;;;;;;;7.53;2.58;;;;;;;12.05;73.10;102466.19;4990712;28;20034;-47
2024/03/21 05:46:09;;;;;;;9.88;2.35;;;;;;;12.31;72.49;102477.47;4990916;28;20525;-45
2024/03/21 05:48:35;;;;;;;8.23;2.33;;;;;;;11.93;73.52;102475.34;4990348;28;20046;-45
2024/03/21 05:51:01;;;;;;;8.70;2.10;;;;;;;11.96;73.50;102476.31;4990695;28;20030;-43
2024/03/21 05:53:27;;;;;;;8.70;2.00;;;;;;;12.43;71.48;102467.41;4989855;28;20048;-46
2024/03/21 05:55:58;;;;;;;5.15;2.00;;;;;;;11.91;72.81;102482.22;4990649;28;20484;-44
2024/03/21 05:58:23;;;;;;;8.15;2.60;;;;;;;12.15;72.77;102488.25;4990244;28;20501;-45
2024/03/21 06:01:04;;;;;;;10.23;2.65;;;;;;;12.24;72.60;102488.56;4990499;28;20046;-44
2024/03/21 06:03:30;;;;;;;6.97;2.22;;;;;;;12.08;72.54;102494.13;4989903;28;20043;-44
2024/03/21 06:05:55;;;;;;;9.48;2.80;;;;;;;11.96;73.00;102505.06;4990519;28;20166;-47
2024/03/21 06:08:21;;;;;;;8.50;2.90;;;;;;;12.25;73.30;102505.16;4990241;28;20067;-49
2024/03/21 06:10:46;;;;;;;10.88;2.90;;;;;;;12.54;71.57;102500.00;4990589;28;20105;-45
2024/03/21 06:13:11;;;;;;;7.88;2.95;;;;;;;12.35;71.98;102502.88;4990530;28;20046;-45
2024/03/21 06:15:37;;;;;;;9.90;3.15;;;;;;;12.09;73.39;102504.63;4990157;28;20125;-46
2024/03/21 06:18:02;;;;;;;9.13;2.88;;;;;;;12.52;71.59;102506.91;4992041;28;20042;-45
2024/03/21 06:20:28;;;;;;;9.55;3.10;;;;;;;11.89;74.00;102503.09;4991413;28;20041;-43
2024/03/21 06:22:53;;;;;;;9.23;3.13;;;;;;;12.09;72.46;102501.13;4994381;28;20057;-46
2024/03/21 06:25:18;;;;;;;12.27;2.90;;;;;;;12.35;71.63;102512.44;4994227;28;20049;-44
2024/03/21 06:27:46;;;;;;;7.93;3.00;;;;;;;12.95;69.97;102516.97;4996094;28;20035;-43
2024/03/21 06:30:12;;;;;;;9.30;2.75;;;;;;;13.04;69.54;102513.75;4995699;28;20065;-44
2024/03/21 06:32:37;;;;;;;7.28;2.50;;;;;;;12.96;69.28;102512.63;4993370;28;20111;-47
2024/03/21 06:35:03;;;;;;;7.75;2.42;;;;;;;12.35;70.42;102502.88;4993582;28;20030;-45
2024/03/21 06:37:31;;;;;;;6.88;2.70;;;;;;;12.01;71.67;102513.97;4993641;28;20031;-46
2024/03/21 06:39:58;;;;;;;7.70;3.00;;;;;;;12.03;72.47;102519.22;4994612;28;20030;-44
2024/03/21 06:42:23;;;;;;;8.23;2.45;;;;;;;12.23;71.82;102514.66;4994018;28;20607;-46
2024/03/21 06:44:48;;;;;;;9.07;2.60;;;;;;;12.71;70.20;102515.31;4995454;28;20094;-43
2024/03/21 06:47:13;;;;;;;13.73;2.63;;;;;;;12.75;69.94;102531.16;4995496;28;20034;-45
2024/03/21 06:49:40;;;;;;;7.70;2.60;;;;;;;12.84;69.34;102530.56;4994902;28;20038;-43
2024/03/21 06:52:06;;;;;;;9.85;2.80;;;;;;;12.92;68.79;102535.22;4996938;28;20040;-43
2024/03/21 06:54:32;;;;;;;6.68;2.40;;;;;;;12.82;68.89;102532.25;4993035;28;20034;-44
2024/03/21 06:56:57;;;;;;;13.50;3.05;;;;;;;12.94;69.21;102532.63;4993845;28;20122;-45
2024/03/21 06:59:22;;;;;;;8.68;2.65;;;;;;;12.73;70.24;102537.22;4993518;28;20031;-47
2024/03/21 07:01:48;;;;;;;8.30;3.05;;;;;;;13.14;68.71;102539.38;4993713;28;20452;-45
2024/03/21 07:04:13;;;;;;;9.93;2.90;;;;;;;13.03;68.15;102543.38;4993205;28;20080;-45
2024/03/21 07:06:38;;;;;;;8.38;2.42;;;;;;;13.33;67.14;102556.50;4993337;28;20046;-44
2024/03/21 07:09:04;;;;;;;7.60;2.97;;;;;;;13.38;66.75;102550.56;4994324;28;20031;-46
2024/03/21 07:11:29;;;;;;;10.57;2.67;;;;;;;13.09;67.66;102571.47;4993522;28;20038;-45
2024/03/21 07:13:57;;;;;;;7.90;2.90;;;;;;;12.95;68.87;102592.88;4992895;28;20034;-46
2024/03/21 07:16:23;;;;;;;5.63;2.15;;;;;;;12.40;70.34;102594.56;4993086;28;20053;-45
2024/03/21 07:18:49;;;;;;;6.32;2.00;;;;;;;12.58;69.58;102596.06;4992958;28;20441;-45
2024/03/21 07:21:14;;;;;;;6.25;1.90;;;;;;;12.46;69.80;102605.22;4993124;28;20058;-45
2024/03/21 07:23:39;;;;;;;5.03;2.10;;;;;;;12.18;71.35;102600.81;4991949;28;20046;-45
2024/03/21 07:26:06;;;;;;;9.95;2.55;;;;;;;12.22;71.27;102602.69;4992696;28;20404;-44
2024/03/21 07:28:31;;;;;;;6.78;2.40;;;;;;;12.41;70.22;102614.66;4991482;28;20034;-46
2024/03/21 07:30:58;;;;;;;4.78;2.30;;;;;;;12.74;68.73;102609.66;4992520;28;20042;-46
2024/03/21 07:33:24;;;;;;;7.00;2.10;;;;;;;12.45;69.64;102612.19;4991224;28;20054;-45
2024/03/21 07:35:53;;;;;;;5.97;2.35;;;;;;;12.47;69.54;102605.28;4993297;28;20038;-47
2024/03/21 07:38:19;;;;;;;5.85;2.40;;;;;;;12.66;69.03;102609.41;4992376;28;20049;-44
2024/03/21 07:41:00;;;;;;;8.88;2.08;;;;;;;12.94;66.72;102595.44;4992419;28;20039;-45
2024/03/21 07:43:27;;;;;;;6.93;2.30;;;;;;;13.21;65.73;102612.03;4992535;28;20065;-45
2024/03/21 07:45:53;;;;;;;7.18;2.97;;;;;;;13.22;65.55;102610.31;4993139;28;20036;-47
2024/03/21 07:48:19;;;;;;;11.48;2.80;;;;;;;13.40;65.46;102608.25;4992727;28;20030;-45
2024/03/21 07:50:44;;;;;;;8.23;3.03;;;;;;;13.74;64.75;102600.47;4992647;28;20038;-47
2024/03/21 07:53:10;;;;;;;10.45;2.75;;;;;;;13.93;64.12;102594.00;4992011;28;20089;-48
2024/03/21 07:55:35;;;;;;;12.18;2.88;;;;;;;13.79;64.08;102600.59;4992544;28;20042;-45
2024/03/21 07:58:01;;;;;;;7.50;2.38;;;;;;;13.93;63.20;102595.75;4992522;28;20132;-47
2024/03/21 08:00:29;;;;;;;11.70;2.80;;;;;;;14.03;62.34;102593.41;4991895;28;20457;-47
2024/03/21 08:02:54;;;;;;;8.77;2.40;;;;;;;13.99;62.56;102586.31;4991874;28;20141;-44
2024/03/21 08:05:20;;;;;;;6.53;2.00;;;;;;;14.30;62.47;102602.84;4991491;28;20034;-45
2024/03/21 08:07:45;;;;;;;7.28;2.47;;;;;;;14.42;62.23;102616.31;4993285;28;20038;-44
2024/03/21 08:10:11;;;;;;;9.35;2.55;;;;;;;14.10;61.05;102615.44;4993917;28;20120;-45
2024/03/21 08:12:36;;;;;;;5.55;2.50;;;;;;;13.81;63.24;102614.66;4993391;28;20049;-43
2024/03/21 08:15:01;;;;;;;4.88;2.55;;;;;;;13.74;63.65;102620.56;4993505;28;20035;-45
2024/03/21 08:17:27;;;;;;;8.35;2.88;;;;;;;13.85;63.52;102632.22;4991702;28;20045;-44
2024/03/21 08:19:54;;;;;;;10.32;3.58;;;;;;;13.73;63.30;102631.88;4991868;28;20405;-44
2024/03/21 08:22:20;;;;;;;7.78;2.90;;;;;;;14.03;62.16;102634.47;4991041;28;20039;-45
2024/03/21 08:24:45;;;;;;;8.65;2.90;;;;;;;13.69;63.62;102633.56;4991720;28;20517;-46
2024/03/21 08:27:10;;;;;;;7.57;2.30;;;;;;;13.69;64.32;102641.41;4991515;28;20030;-46
2024/03/21 08:29:36;;;;;;;6.03;2.00;;;;;;;13.97;62.59;102639.53;4991602;28;20045;-46
2024/03/21 08:32:01;;;;;;;7.43;2.38;;;;;;;14.04;62.88;102637.16;4991747;28;20381;-44
2024/03/21 08:34:26;;;;;;;6.07;2.15;;;;;;;14.38;61.11;102648.59;4990658;28;20125;-45
2024/03/21 08:36:51;;;;;;;6.50;2.30;;;;;;;14.00;61.83;102635.28;4991655;28;20038;-46
2024/03/21 08:39:17;;;;;;;5.28;2.55;;;;;;;14.37;60.67;102636.28;4991250;28;20503;-45
2024/03/21 08:41:43;;;;;;;7.18;2.10;;;;;;;13.49;63.32;102653.03;4991289;28;20118;-46
2024/03/21 08:44:08;;;;;;;5.90;2.30;;;;;;;13.53;63.47;102648.78;4990218;28;20166;-46
2024/03/21 08:46:33;;;;;;;7.90;2.47;;;;;;;13.52;63.53;102647.00;4990879;28;20041;-46
2024/03/21 08:48:58;;;;;;;6.05;1.92;;;;;;;14.05;61.26;102652.03;4991537;28;20042;-48
2024/03/21 08:51:24;;;;;;;5.97;2.40;;;;;;;13.83;60.66;102641.81;4990829;28;20030;-44
2024/03/21 08:53:49;;;;;;;6.00;2.28;;;;;;;14.38;59.73;102641.59;4990634;28;20057;-46
2024/03/21 08:56:14;;;;;;;7.13;2.45;;;;;;;14.58;59.32;102645.59;4991875;28;20088;-48
2024/03/21 08:58:40;;;;;;;7.50;2.63;;;;;;;14.31;59.85;102643.97;4992961;28;20114;-43
2024/03/21 09:01:05;;;;;;;7.72;2.33;;;;;;;14.53;59.25;102639.34;4991431;28;20620;-48
2024/03/21 09:03:33;;;;;;;5.65;2.50;;;;;;;14.67;58.53;102638.81;4989416;28;20540;-45
2024/03/21 09:05:58;;;;;;;7.90;2.97;;;;;;;14.30;59.73;102645.72;4990983;28;20037;-47
2024/03/21 09:08:24;;;;;;;7.90;2.70;;;;;;;14.34;59.67;102650.19;4990374;28;20041;-47
2024/03/21 09:10:49;;;;;;;6.63;2.28;;;;;;;14.45;59.11;102658.41;4990729;28;20460;-47
2024/03/21 09:13:14;;;;;;;8.18;2.92;;;;;;;13.99;60.36;102656.22;4990397;28;20038;-45
2024/03/21 09:15:40;;;;;;;7.13;2.88;;;;;;;14.48;59.33;102661.97;4990287;28;20215;-48
2024/03/21 09:18:05;;;;;;;8.18;3.30;;;;;;;14.44;58.26;102657.50;4991976;28;20460;-45
2024/03/21 09:20:31;;;;;;;9.43;3.22;;;;;;;14.68;59.01;102664.22;4990605;28;20061;-48
2024/03/21 09:22:57;;;;;;;7.38;2.85;;;;;;;14.49;60.23;102665.47;4990901;28;20053;-44
2024/03/21 09:25:22;;;;;;;5.22;3.10;;;;;;;13.82;61.79;102668.88;4990085;28;20508;-48
2024/03/21 09:27:47;;;;;;;8.70;3.30;;;;;;;14.01;61.81;102676.41;4990959;28;20041;-45
2024/03/21 09:30:13;;;;;;;6.65;3.22;;;;;;;14.55;60.39;102681.38;4990375;28;20046;-45
2024/03/21 09:32:38;;;;;;;6.82;2.83;;;;;;;14.14;61.38;102689.03;4989780;28;20088;-46
2024/03/21 09:35:06;;;;;;;5.70;2.97;;;;;;;13.91;61.08;102686.56;4990418;28;20401;-46
2024/03/21 09:37:32;;;;;;;5.60;2.47;;;;;;;13.95;61.48;102686.72;4990062;28;20121;-46
2024/03/21 09:39:57;;;;;;;7.55;2.80;;;;;;;13.88;62.11;102682.16;4990729;28;20560;-46
2024/03/21 09:42:23;;;;;;;4.53;2.13;;;;;;;13.60;61.98;102700.56;4989739;28;20121;-45
2024/03/21 09:44:51;;;;;;;4.90;2.45;;;;;;;13.90;61.72;102695.31;4990162;28;20030;-44
2024/03/21 09:47:19;;;;;;;7.35;3.28;;;;;;;14.37;59.54;102694.91;4990270;28;20400;-48
2024/03/21 09:49:46;;;;;;;6.45;2.50;;;;;;;14.39;59.53;102703.72;4990357;28;20034;-48
2024/03/21 09:52:12;;;;;;;7.78;2.38;;;;;;;14.24;59.89;102705.88;4990000;28;20088;-44
2024/03/21 09:54:37;;;;;;;7.63;2.60;;;;;;;14.32;59.50;102709.63;4989981;28;20401;-46
2024/03/21 09:57:05;;;;;;;6.22;2.30;;;;;;;14.28;60.02;102713.00;4993588;28;20042;-46
2024/03/21 09:59:30;;;;;;;6.03;2.90;;;;;;;14.39;60.13;102718.59;4994635;28;20104;-44
2024/03/21 10:01:55;;;;;;;5.57;2.70;;;;;;;14.72;59.60;102723.81;4994625;28;20121;-46
2024/03/21 10:04:21;;;;;;;5.95;2.60;;;;;;;14.28;59.65;102735.72;4994032;28;20069;-44
2024/03/21 10:06:47;;;;;;;6.85;3.03;;;;;;;14.60;58.04;102743.66;4994557;28;20030;-45
2024/03/21 10:09:13;;;;;;;7.05;3.25;;;;;;;14.35;59.37;102750.78;4994784;28;20049;-46
2024/03/21 10:11:40;;;;;;;7.45;3.30;;;;;;;14.10;60.16;102750.09;4993895;28;20481;-45
2024/03/21 10:14:11;;;;;;;6.78;2.95;;;;;;;13.99;60.82;102758.50;4994315;28;20048;-45
2024/03/21 10:16:36;;;;;;;7.22;3.35;;;;;;;13.73;63.71;102741.97;4993756;28;20035;-45
2024/03/21 10:19:01;;;;;;;7.93;2.70;;;;;;;13.94;61.51;102745.25;4994064;28;20049;-44
2024/03/21 10:21:27;;;;;;;4.22;2.00;;;;;;;13.91;60.61;102739.00;4993447;28;20030;-45
2024/03/21 10:24:04;;;;;;;5.15;2.22;;;;;;;14.16;60.23;102745.03;4993425;28;20038;-44
2024/03/21 10:26:29;;;;;;;6.25;3.10;;;;;;;14.40;59.06;102734.34;4993268;28;20517;-46
2024/03/21 10:28:55;;;;;;;9.27;3.38;;;;;;;14.63;58.59;102727.09;4994096;28;20113;-46
2024/03/21 10:31:22;;;;;;;7.22;3.38;;;;;;;14.08;60.68;102724.69;4993544;28;20048;-44
2024/03/21 10:33:51;;;;;;;7.55;3.80;;;;;;;13.95;61.28;102728.69;4993926;28;20392;-47
2024/03/21 10:36:17;;;;;;;6.22;3.40;;;;;;;14.24;61.08;102716.38;4994154;28;20114;-46
2024/03/21 10:38:44;;;;;;;5.70;3.00;;;;;;;14.23;60.74;102719.84;4994814;28;20062;-44
2024/03/21 10:41:17;;;;;;;6.20;2.40;;;;;;;14.26;60.50;102726.94;4995462;28;20026;-44
2024/03/21 10:43:45;;;;;;;6.85;3.00;;;;;;;14.35;60.37;102735.03;4993985;28;20440;-46
2024/03/21 10:46:12;;;;;;;4.32;2.30;;;;;;;13.83;62.19;102733.56;4994626;28;20030;-45
2024/03/21 10:48:39;;;;;;;7.00;3.13;;;;;;;14.10;60.86;102718.63;4994034;28;20042;-45
2024/03/21 10:51:12;;;;;;;9.55;3.10;;;;;;;14.40;60.47;102702.84;4994574;28;20069;-46
2024/03/21 10:53:38;;;;;;;7.15;3.40;;;;;;;14.38;60.93;102715.06;4992882;28;20035;-48
2024/03/21 10:56:08;;;;;;;9.00;3.80;;;;;;;14.48;60.24;102706.59;4993732;28;20402;-45
2024/03/21 10:58:41;;;;;;;7.38;3.55;;;;;;;14.60;60.72;102712.16;4993960;28;20062;-48
2024/03/21 11:01:08;;;;;;;7.13;3.13;;;;;;;14.53;60.83;102718.09;4994922;28;20652;-45
2024/03/21 11:03:51;;;;;;;10.10;4.13;;;;;;;14.29;61.58;102719.13;4994199;28;20060;-46
2024/03/21 11:06:18;;;;;;;7.38;3.42;;;;;;;14.55;61.15;102719.03;4994482;28;20468;-44
2024/03/21 11:08:54;;;;;;;6.40;2.80;;;;;;;13.80;63.79;102725.59;4993137;28;20045;-45
2024/03/21 11:11:20;;;;;;;5.30;2.97;;;;;;;14.06;62.84;102724.63;4994266;28;20038;-45
2024/03/21 11:13:46;;;;;;;3.80;2.30;;;;;;;13.80;62.58;102734.34;4993823;28;20405;-46
2024/03/21 11:16:11;;;;;;;5.70;2.67;;;;;;;14.08;62.24;102748.28;4993122;28;20030;-48
2024/03/21 11:18:37;;;;;;;5.47;2.55;;;;;;;14.03;62.40;102758.63;4993634;28;20038;-45